sensor_id;sensor_type;location;lat;lon;timestamp;pressure;altitude;pressure_sealevel;temperature;humidity
19843;BME280;10082;51.038;6.992;2023-05-24T00:00:37;112171.53;;;-144.33;100.00
19843;BME280;10082;51.038;6.992;2023-05-24T00:03:07;112171.53;;;-144.33;100.00
19843;BME280;10082;51.038;6.992;2023-05-24T00:05:35;112171.53;;;-144.33;100.00
19843;BME280;10082;51.038;6.992;2023-05-24T00:08:05;112171.53;;;-144.33;100.00
19843;BME280;10082;51.038;6.992;2023-05-24T00:10:32;112171.53;;;-144.33;100.00
19843;BME280;10082;51.038;6.992;2023-05-24T00:13:00;112171.53;;;-144.33;100.00
19843;BME280;10082;51.038;6.992;2023-05-24T00:15:27;112171.53;;;-144.33;100.00
19843;BME280;10082;51.038;6.992;2023-05-24T00:17:56;112171.53;;;-144.33;100.00
19843;BME280;10082;51.038;6.992;2023-05-24T00:20:25;112171.53;;;-144.33;100.00
19843;BME280;10082;51.038;6.992;2023-05-24T00:22:52;112171.53;;;-144.33;100.00
19843;BME280;10082;51.038;6.992;2023-05-24T00:25:20;112171.53;;;-144.33;100.00
19843;BME280;10082;51.038;6.992;2023-05-24T00:27:48;112161.47;;;-144.33;100.00
19843;BME280;10082;51.038;6.992;2023-05-24T00:30:16;110633.91;;;-144.33;100.00
19843;BME280;10082;51.038;6.992;2023-05-24T00:32:43;108596.03;;;-144.33;100.00
19843;BME280;10082;51.038;6.992;2023-05-24T00:35:11;106165.19;;;-144.33;100.00
19843;BME280;10082;51.038;6.992;2023-05-24T00:37:40;103207.53;;;-144.33;100.00
19843;BME280;10082;51.038;6.992;2023-05-24T00:40:11;99210.47;;;-144.33;100.00
19843;BME280;10082;51.038;6.992;2023-05-24T00:42:39;95042.94;;;-144.33;100.00
19843;BME280;10082;51.038;6.992;2023-05-24T00:45:07;90559.34;;;-144.33;100.00
19843;BME280;10082;51.038;6.992;2023-05-24T00:47:35;85022.81;;;-144.33;100.00
19843;BME280;10082;51.038;6.992;2023-05-24T00:50:03;79945.19;;;-144.33;100.00
19843;BME280;10082;51.038;6.992;2023-05-24T00:52:31;73984.56;;;-144.33;100.00
19843;BME280;10082;51.038;6.992;2023-05-24T00:55:02;69032.44;;;-144.33;100.00
19843;BME280;10082;51.038;6.992;2023-05-24T00:57:30;64191.84;;;-144.33;100.00
19843;BME280;10082;51.038;6.992;2023-05-24T00:59:58;59186.31;;;-144.33;100.00
19843;BME280;10082;51.038;6.992;2023-05-24T01:02:28;54103.72;;;-144.33;100.00
19843;BME280;10082;51.038;6.992;2023-05-24T01:04:57;49534.97;;;-144.33;100.00
19843;BME280;10082;51.038;6.992;2023-05-24T01:07:46;45731.72;;;-144.33;100.00
19843;BME280;10082;51.038;6.992;2023-05-24T01:10:24;41425.78;;;-144.33;100.00
19843;BME280;10082;51.038;6.992;2023-05-24T01:13:03;36618.81;;;-144.33;100.00
19843;BME280;10082;51.038;6.992;2023-05-24T01:15:37;32575.41;;;-144.33;100.00
19843;BME280;10082;51.038;6.992;2023-05-24T01:18:12;28788.50;;;-144.33;100.00
19843;BME280;10082;51.038;6.992;2023-05-24T01:20:42;25509.50;;;-144.33;100.00
19843;BME280;10082;51.038;6.992;2023-05-24T01:23:27;21225.69;;;-144.33;100.00
19843;BME280;10082;51.038;6.992;2023-05-24T01:26:30;16946.63;;;-144.33;100.00
19843;BME280;10082;51.038;6.992;2023-05-24T01:29:00;13677.53;;;-144.33;100.00
19843;BME280;10082;51.038;6.992;2023-05-24T01:31:29;10411.22;;;-144.33;100.00
19843;BME280;10082;51.038;6.992;2023-05-24T01:33:56;7147.66;;;-144.33;100.00
19843;BME280;10082;51.038;6.992;2023-05-24T01:36:24;4889.88;;;-144.33;100.00
19843;BME280;10082;51.038;6.992;2023-05-24T01:38:51;2382.78;;;-144.33;100.00
19843;BME280;10082;51.038;6.992;2023-05-24T01:41:35;378.28;;;-144.33;100.00
19843;BME280;10082;51.038;6.992;2023-05-24T01:44:12;-1625.19;;;-144.33;100.00
19843;BME280;10082;51.038;6.992;2023-05-24T01:46:39;-3377.38;;;-144.33;100.00
19843;BME280;10082;51.038;6.992;2023-05-24T01:49:17;-5128.75;;;-144.33;100.00
19843;BME280;10082;51.038;6.992;2023-05-24T01:51:50;-6379.25;;;-144.33;100.00
19843;BME280;10082;51.038;6.992;2023-05-24T01:54:22;-7629.34;;;-144.33;100.00
19843;BME280;10082;51.038;6.992;2023-05-24T01:56:51;-8879.00;;;-144.33;100.00
19843;BME280;10082;51.038;6.992;2023-05-24T01:59:22;-10128.28;;;-144.33;100.00
19843;BME280;10082;51.038;6.992;2023-05-24T02:01:50;-11127.41;;;-144.33;100.00
19843;BME280;10082;51.038;6.992;2023-05-24T02:04:19;-11876.59;;;-144.33;100.00
19843;BME280;10082;51.038;6.992;2023-05-24T02:06:46;-12625.63;;;-144.33;100.00
19843;BME280;10082;51.038;6.992;2023-05-24T02:09:14;-13374.50;;;-144.33;100.00
19843;BME280;10082;51.038;6.992;2023-05-24T02:11:41;-14123.22;;;-144.33;100.00
19843;BME280;10082;51.038;6.992;2023-05-24T02:14:08;-14622.31;;;-144.33;100.00
19843;BME280;10082;51.038;6.992;2023-05-24T02:16:37;-15370.81;;;-144.33;100.00
19843;BME280;10082;51.038;6.992;2023-05-24T02:19:11;-16368.56;;;-144.33;100.00
19843;BME280;10082;51.038;6.992;2023-05-24T02:21:39;-17116.72;;;-144.33;100.00
19843;BME280;10082;51.038;6.992;2023-05-24T02:24:06;-17615.41;;;-144.33;100.00
19843;BME280;10082;51.038;6.992;2023-05-24T02:26:36;-17616.84;;;-144.33;100.00
19843;BME280;10082;51.038;6.992;2023-05-24T02:29:04;-17616.84;;;-144.33;100.00
19843;BME280;10082;51.038;6.992;2023-05-24T02:31:31;-17616.84;;;-144.33;100.00
19843;BME280;10082;51.038;6.992;2023-05-24T02:34:00;-17616.84;;;-144.33;100.00
19843;BME280;10082;51.038;6.992;2023-05-24T02:36:27;-17616.84;;;-144.33;100.00
19843;BME280;10082;51.038;6.992;2023-05-24T02:38:57;-17616.84;;;-144.33;100.00
19843;BME280;10082;51.038;6.992;2023-05-24T02:41:24;-17616.84;;;-144.33;100.00
19843;BME280;10082;51.038;6.992;2023-05-24T02:43:51;-17616.84;;;-144.33;100.00
19843;BME280;10082;51.038;6.992;2023-05-24T02:46:19;-17616.84;;;-144.33;100.00
19843;BME280;10082;51.038;6.992;2023-05-24T02:48:46;-17616.84;;;-144.33;100.00
19843;BME280;10082;51.038;6.992;2023-05-24T02:51:16;-17616.84;;;-144.33;100.00
19843;BME280;10082;51.038;6.992;2023-05-24T02:53:43;-17616.84;;;-144.33;100.00
19843;BME280;10082;51.038;6.992;2023-05-24T02:56:11;-17616.84;;;-144.33;100.00
19843;BME280;10082;51.038;6.992;2023-05-24T02:58:42;-17616.84;;;-144.33;100.00
19843;BME280;10082;51.038;6.992;2023-05-24T03:01:10;-17616.84;;;-144.33;100.00
19843;BME280;10082;51.038;6.992;2023-05-24T03:03:39;-17616.84;;;-144.33;100.00
19843;BME280;10082;51.038;6.992;2023-05-24T03:06:09;-17616.84;;;-144.33;100.00
19843;BME280;10082;51.038;6.992;2023-05-24T03:08:40;-17616.84;;;-144.33;100.00
19843;BME280;10082;51.038;6.992;2023-05-24T03:11:07;-17616.84;;;-144.33;100.00
19843;BME280;10082;51.038;6.992;2023-05-24T03:13:35;-17616.84;;;-144.33;100.00
19843;BME280;10082;51.038;6.992;2023-05-24T03:16:04;-17616.84;;;-144.33;100.00
19843;BME280;10082;51.038;6.992;2023-05-24T03:18:31;-17616.84;;;-144.33;100.00
19843;BME280;10082;51.038;6.992;2023-05-24T03:20:58;-17616.84;;;-144.33;100.00
19843;BME280;10082;51.038;6.992;2023-05-24T03:23:25;-17616.84;;;-144.33;100.00
19843;BME280;10082;51.038;6.992;2023-05-24T03:25:54;-17616.84;;;-144.33;100.00
19843;BME280;10082;51.038;6.992;2023-05-24T03:28:20;-17616.84;;;-144.33;100.00
19843;BME280;10082;51.038;6.992;2023-05-24T03:30:47;-17616.84;;;-144.33;100.00
19843;BME280;10082;51.038;6.992;2023-05-24T03:33:14;-17616.84;;;-144.33;100.00
19843;BME280;10082;51.038;6.992;2023-05-24T03:35:42;-17616.84;;;-144.33;100.00
19843;BME280;10082;51.038;6.992;2023-05-24T03:38:09;-17616.84;;;-144.33;100.00
19843;BME280;10082;51.038;6.992;2023-05-24T03:40:38;-17616.84;;;-144.33;100.00
19843;BME280;10082;51.038;6.992;2023-05-24T03:43:17;-17616.84;;;-144.33;100.00
19843;BME280;10082;51.038;6.992;2023-05-24T03:45:48;-17616.84;;;-144.33;100.00
19843;BME280;10082;51.038;6.992;2023-05-24T03:48:15;-17616.84;;;-144.33;100.00
19843;BME280;10082;51.038;6.992;2023-05-24T03:50:45;-17616.84;;;-144.33;100.00
19843;BME280;10082;51.038;6.992;2023-05-24T03:53:13;-17616.84;;;-144.33;100.00
19843;BME280;10082;51.038;6.992;2023-05-24T03:55:40;-17616.84;;;-144.33;100.00
19843;BME280;10082;51.038;6.992;2023-05-24T03:58:07;-17616.84;;;-144.33;100.00
19843;BME280;10082;51.038;6.992;2023-05-24T04:00:36;-17616.84;;;-144.33;100.00
19843;BME280;10082;51.038;6.992;2023-05-24T04:03:03;-17616.84;;;-144.33;100.00
19843;BME280;10082;51.038;6.992;2023-05-24T04:05:31;-17616.84;;;-144.33;100.00
19843;BME280;10082;51.038;6.992;2023-05-24T04:07:58;-17616.84;;;-144.33;100.00
19843;BME280;10082;51.038;6.992;2023-05-24T04:10:25;-17616.84;;;-144.33;100.00
19843;BME280;10082;51.038;6.992;2023-05-24T04:12:56;-17616.84;;;-144.33;100.00
19843;BME280;10082;51.038;6.992;2023-05-24T04:15:23;-17616.84;;;-144.33;100.00
19843;BME280;10082;51.038;6.992;2023-05-24T04:17:52;-17616.84;;;-144.33;100.00
19843;BME280;10082;51.038;6.992;2023-05-24T04:20:21;-17616.84;;;-144.33;100.00
19843;BME280;10082;51.038;6.992;2023-05-24T04:22:50;-17616.84;;;-144.33;100.00
19843;BME280;10082;51.038;6.992;2023-05-24T04:25:17;-17616.84;;;-144.33;100.00
19843;BME280;10082;51.038;6.992;2023-05-24T04:27:46;-17616.84;;;-144.33;100.00
19843;BME280;10082;51.038;6.992;2023-05-24T04:30:13;-17616.84;;;-144.33;100.00
19843;BME280;10082;51.038;6.992;2023-05-24T04:32:41;-17616.84;;;-144.33;100.00
19843;BME280;10082;51.038;6.992;2023-05-24T04:35:11;-17616.84;;;-144.33;100.00
19843;BME280;10082;51.038;6.992;2023-05-24T04:37:39;-17616.84;;;-144.33;100.00
19843;BME280;10082;51.038;6.992;2023-05-24T04:40:07;-17616.84;;;-144.33;100.00
19843;BME280;10082;51.038;6.992;2023-05-24T04:42:35;-17616.84;;;-144.33;100.00
19843;BME280;10082;51.038;6.992;2023-05-24T04:45:03;-17616.84;;;-144.33;100.00
19843;BME280;10082;51.038;6.992;2023-05-24T04:47:30;-17616.84;;;-144.33;100.00
19843;BME280;10082;51.038;6.992;2023-05-24T04:49:58;-17616.84;;;-144.33;100.00
19843;BME280;10082;51.038;6.992;2023-05-24T04:52:26;-17616.84;;;-144.33;100.00
19843;BME280;10082;51.038;6.992;2023-05-24T04:54:55;-17616.84;;;-144.33;100.00
19843;BME280;10082;51.038;6.992;2023-05-24T04:57:25;-17616.84;;;-144.33;100.00
19843;BME280;10082;51.038;6.992;2023-05-24T04:59:53;-17616.84;;;-144.33;100.00
19843;BME280;10082;51.038;6.992;2023-05-24T05:02:20;-17616.84;;;-144.33;100.00
19843;BME280;10082;51.038;6.992;2023-05-24T05:04:47;-17616.84;;;-144.33;100.00
19843;BME280;10082;51.038;6.992;2023-05-24T05:07:14;-17616.84;;;-144.33;100.00
19843;BME280;10082;51.038;6.992;2023-05-24T05:09:43;-17616.84;;;-144.33;100.00
19843;BME280;10082;51.038;6.992;2023-05-24T05:12:11;-17616.84;;;-144.33;100.00
19843;BME280;10082;51.038;6.992;2023-05-24T05:14:38;-17616.84;;;-144.33;100.00
19843;BME280;10082;51.038;6.992;2023-05-24T05:17:06;-17616.84;;;-144.33;100.00
19843;BME280;10082;51.038;6.992;2023-05-24T05:19:33;-17616.84;;;-144.33;100.00
19843;BME280;10082;51.038;6.992;2023-05-24T05:22:00;-17616.84;;;-144.33;100.00
19843;BME280;10082;51.038;6.992;2023-05-24T05:24:27;-17616.84;;;-144.33;100.00
19843;BME280;10082;51.038;6.992;2023-05-24T05:26:56;-17616.84;;;-144.33;100.00
19843;BME280;10082;51.038;6.992;2023-05-24T05:29:23;-17616.84;;;-144.33;100.00
19843;BME280;10082;51.038;6.992;2023-05-24T05:31:50;-17616.84;;;-144.33;100.00
19843;BME280;10082;51.038;6.992;2023-05-24T05:34:17;-17616.84;;;-144.33;100.00
19843;BME280;10082;51.038;6.992;2023-05-24T05:36:45;-17616.84;;;-144.33;100.00
19843;BME280;10082;51.038;6.992;2023-05-24T05:39:12;-17616.84;;;-144.33;100.00
19843;BME280;10082;51.038;6.992;2023-05-24T05:41:40;-17616.84;;;-144.33;100.00
19843;BME280;10082;51.038;6.992;2023-05-24T05:44:12;-16867.34;;;-144.33;100.00
19843;BME280;10082;51.038;6.992;2023-05-24T05:46:39;-16119.16;;;-144.33;100.00
19843;BME280;10082;51.038;6.992;2023-05-24T05:49:08;-14622.31;;;-144.33;100.00
19843;BME280;10082;51.038;6.992;2023-05-24T05:51:35;-15370.81;;;-144.33;100.00
19843;BME280;10082;51.038;6.992;2023-05-24T05:54:03;-14871.81;;;-144.33;100.00
19843;BME280;10082;51.038;6.992;2023-05-24T05:56:30;-13624.09;;;-144.33;100.00
19843;BME280;10082;51.038;6.992;2023-05-24T05:58:57;-11127.41;;;-144.33;100.00
19843;BME280;10082;51.038;6.992;2023-05-24T06:01:26;-11127.41;;;-144.33;100.00
19843;BME280;10082;51.038;6.992;2023-05-24T06:03:54;-10378.09;;;-144.33;100.00
19843;BME280;10082;51.038;6.992;2023-05-24T06:06:22;-8629.13;;;-144.33;100.00
19843;BME280;10082;51.038;6.992;2023-05-24T06:08:49;-8379.19;;;-144.33;100.00
19843;BME280;10082;51.038;6.992;2023-05-24T06:11:16;-8879.00;;;-144.33;100.00
19843;BME280;10082;51.038;6.992;2023-05-24T06:13:43;-8629.13;;;-144.33;100.00
19843;BME280;10082;51.038;6.992;2023-05-24T06:16:10;-9628.63;;;-144.33;100.00
19843;BME280;10082;51.038;6.992;2023-05-24T06:18:40;-9878.47;;;-144.33;100.00
19843;BME280;10082;51.038;6.992;2023-05-24T06:21:07;-7629.34;;;-144.33;100.00
19843;BME280;10082;51.038;6.992;2023-05-24T06:23:35;-5879.09;;;-144.33;100.00
19843;BME280;10082;51.038;6.992;2023-05-24T06:26:05;-6129.19;;;-144.33;100.00
19843;BME280;10082;51.038;6.992;2023-05-24T06:28:34;-4378.25;;;-144.33;100.00
19843;BME280;10082;51.038;6.992;2023-05-24T06:31:01;-3127.09;;;-144.33;100.00
19843;BME280;10082;51.038;6.992;2023-05-24T06:33:29;-2125.91;;;-144.33;100.00
19843;BME280;10082;51.038;6.992;2023-05-24T06:35:58;1129.84;;;-144.33;100.00
19843;BME280;10082;51.038;6.992;2023-05-24T06:38:26;4388.31;;;-144.33;100.00
19843;BME280;10082;51.038;6.992;2023-05-24T06:40:54;3134.75;;;-144.33;100.00
19843;BME280;10082;51.038;6.992;2023-05-24T06:43:21;3886.84;;;-144.33;100.00
19843;BME280;10082;51.038;6.992;2023-05-24T06:45:48;5140.69;;;-144.33;100.00
19843;BME280;10082;51.038;6.992;2023-05-24T06:48:16;7147.66;;;-144.33;100.00
19843;BME280;10082;51.038;6.992;2023-05-24T06:50:43;7398.59;;;-144.33;100.00
19843;BME280;10082;51.038;6.992;2023-05-24T06:53:13;7900.53;;;-144.33;100.00
19843;BME280;10082;51.038;6.992;2023-05-24T06:55:40;5893.16;;;-144.33;100.00
19843;BME280;10082;51.038;6.992;2023-05-24T06:58:07;6896.72;;;-144.33;100.00
19843;BME280;10082;51.038;6.992;2023-05-24T07:00:39;9155.69;;;-144.33;100.00
19843;BME280;10082;51.038;6.992;2023-05-24T07:03:07;8904.63;;;-144.33;100.00
19843;BME280;10082;51.038;6.992;2023-05-24T07:05:34;12923.53;;;-144.33;100.00
19843;BME280;10082;51.038;6.992;2023-05-24T07:08:01;11415.94;;;-144.33;100.00
19843;BME280;10082;51.038;6.992;2023-05-24T07:10:30;13426.19;;;-144.33;100.00
19843;BME280;10082;51.038;6.992;2023-05-24T07:12:57;13426.19;;;-144.33;100.00
19843;BME280;10082;51.038;6.992;2023-05-24T07:15:24;15437.47;;;-144.33;100.00
19843;BME280;10082;51.038;6.992;2023-05-24T07:17:52;18456.34;;;-144.33;100.00
19843;BME280;10082;51.038;6.992;2023-05-24T07:20:20;15437.47;;;-144.33;100.00
19843;BME280;10082;51.038;6.992;2023-05-24T07:22:47;27527.03;;;-144.33;100.00
19843;BME280;10082;51.038;6.992;2023-05-24T07:25:14;46238.59;;;-144.33;100.00
19843;BME280;10082;51.038;6.992;2023-05-24T07:27:42;64275.41;;;-144.33;100.00
19843;BME280;10082;51.038;6.992;2023-05-24T07:30:10;78815.03;;;-144.33;100.00
19843;BME280;10082;51.038;6.992;2023-05-24T07:32:39;85464.75;;;-144.33;100.00
19843;BME280;10082;51.038;6.992;2023-05-24T07:35:07;112171.53;;;-144.33;100.00
19843;BME280;10082;51.038;6.992;2023-05-24T07:37:37;112171.53;;;-144.33;96.36
19843;BME280;10082;51.038;6.992;2023-05-24T07:40:08;112171.53;;;-144.33;92.22
19843;BME280;10082;51.038;6.992;2023-05-24T07:42:36;112171.53;;;-144.33;91.52
19843;BME280;10082;51.038;6.992;2023-05-24T07:45:07;112171.53;;;-144.33;99.36
19843;BME280;10082;51.038;6.992;2023-05-24T07:47:34;112171.53;;;-144.33;100.00
19843;BME280;10082;51.038;6.992;2023-05-24T07:50:02;112171.53;;;-144.33;100.00
19843;BME280;10082;51.038;6.992;2023-05-24T07:52:30;112171.53;;;-144.33;100.00
19843;BME280;10082;51.038;6.992;2023-05-24T07:54:57;102394.16;;;-144.33;100.00
19843;BME280;10082;51.038;6.992;2023-05-24T07:57:24;95459.91;;;-144.33;100.00
19843;BME280;10082;51.038;6.992;2023-05-24T07:59:51;97770.00;;;-144.33;100.00
19843;BME280;10082;51.038;6.992;2023-05-24T08:02:20;94433.63;;;-144.33;100.00
19843;BME280;10082;51.038;6.992;2023-05-24T08:04:48;106906.97;;;-144.33;100.00
19843;BME280;10082;51.038;6.992;2023-05-24T08:07:17;112171.53;;;-144.33;100.00
19843;BME280;10082;51.038;6.992;2023-05-24T08:09:44;112171.53;;;-144.33;93.92
19843;BME280;10082;51.038;6.992;2023-05-24T08:12:11;112171.53;;;-144.33;89.45
19843;BME280;10082;51.038;6.992;2023-05-24T08:14:38;112171.53;;;-144.33;82.78
19843;BME280;10082;51.038;6.992;2023-05-24T08:17:06;112171.53;;;-144.33;81.94
19843;BME280;10082;51.038;6.992;2023-05-24T08:19:35;112171.53;;;-144.33;78.86
19843;BME280;10082;51.038;6.992;2023-05-24T08:22:02;112171.53;;;-144.33;78.39
19843;BME280;10082;51.038;6.992;2023-05-24T08:24:30;112171.53;;;-144.33;83.20
19843;BME280;10082;51.038;6.992;2023-05-24T08:26:57;112171.53;;;-144.33;88.45
19843;BME280;10082;51.038;6.992;2023-05-24T08:29:25;112171.53;;;-144.33;94.16
19843;BME280;10082;51.038;6.992;2023-05-24T08:31:52;112171.53;;;-144.33;95.64
19843;BME280;10082;51.038;6.992;2023-05-24T08:34:20;112171.53;;;-144.33;96.42
19843;BME280;10082;51.038;6.992;2023-05-24T08:36:48;112171.53;;;-144.33;95.62
19843;BME280;10082;51.038;6.992;2023-05-24T08:42:01;112171.53;;;-144.33;97.27
19843;BME280;10082;51.038;6.992;2023-05-24T08:44:31;112171.53;;;-144.33;95.22
19843;BME280;10082;51.038;6.992;2023-05-24T08:47:03;112171.53;;;-144.33;91.38
19843;BME280;10082;51.038;6.992;2023-05-24T08:49:31;112171.53;;;-144.33;89.70
19843;BME280;10082;51.038;6.992;2023-05-24T08:52:01;112171.53;;;-144.33;88.07
19843;BME280;10082;51.038;6.992;2023-05-24T08:54:28;112171.53;;;-144.33;86.01
19843;BME280;10082;51.038;6.992;2023-05-24T08:56:56;112171.53;;;-144.33;75.30
19843;BME280;10082;51.038;6.992;2023-05-24T08:59:24;112171.53;;;-144.33;73.98
19843;BME280;10082;51.038;6.992;2023-05-24T09:01:53;112171.53;;;-144.33;68.58
19843;BME280;10082;51.038;6.992;2023-05-24T09:04:21;112171.53;;;-144.33;67.40
19843;BME280;10082;51.038;6.992;2023-05-24T09:06:51;112171.53;;;-144.33;70.42
19843;BME280;10082;51.038;6.992;2023-05-24T09:09:20;112171.53;;;-144.33;69.73
19843;BME280;10082;51.038;6.992;2023-05-24T09:11:48;112171.53;;;-144.33;75.59
19843;BME280;10082;51.038;6.992;2023-05-24T09:14:17;112171.53;;;-144.33;74.46
19843;BME280;10082;51.038;6.992;2023-05-24T09:16:45;112171.53;;;-144.33;77.78
19843;BME280;10082;51.038;6.992;2023-05-24T09:19:12;112171.53;;;-144.33;79.95
19843;BME280;10082;51.038;6.992;2023-05-24T09:21:39;112171.53;;;-144.33;77.92
19843;BME280;10082;51.038;6.992;2023-05-24T09:24:10;112171.53;;;-144.33;82.91
19843;BME280;10082;51.038;6.992;2023-05-24T09:26:39;112171.53;;;-144.33;80.78
19843;BME280;10082;51.038;6.992;2023-05-24T09:29:09;112171.53;;;-144.33;82.19
19843;BME280;10082;51.038;6.992;2023-05-24T09:31:38;112171.53;;;-144.33;84.19
19843;BME280;10082;51.038;6.992;2023-05-24T09:34:09;112171.53;;;-144.33;84.56
19843;BME280;10082;51.038;6.992;2023-05-24T09:36:39;112171.53;;;-144.33;84.00
19843;BME280;10082;51.038;6.992;2023-05-24T09:39:09;112171.53;;;-144.33;83.12
19843;BME280;10082;51.038;6.992;2023-05-24T09:41:36;112171.53;;;-144.33;81.51
19843;BME280;10082;51.038;6.992;2023-05-24T09:44:05;112171.53;;;-144.33;84.43
19843;BME280;10082;51.038;6.992;2023-05-24T09:46:36;112171.53;;;-144.33;79.71
19843;BME280;10082;51.038;6.992;2023-05-24T09:49:04;112171.53;;;-144.33;75.05
19843;BME280;10082;51.038;6.992;2023-05-24T09:51:31;112171.53;;;-144.33;75.37
19843;BME280;10082;51.038;6.992;2023-05-24T09:54:00;112171.53;;;-144.33;75.36
19843;BME280;10082;51.038;6.992;2023-05-24T09:56:28;112171.53;;;-144.33;76.98
19843;BME280;10082;51.038;6.992;2023-05-24T09:58:56;112171.53;;;-144.33;73.98
19843;BME280;10082;51.038;6.992;2023-05-24T10:01:24;112171.53;;;-144.33;73.45
19843;BME280;10082;51.038;6.992;2023-05-24T10:03:52;112171.53;;;-144.33;70.24
19843;BME280;10082;51.038;6.992;2023-05-24T10:06:28;112171.53;;;-144.33;65.53
19843;BME280;10082;51.038;6.992;2023-05-24T10:08:57;112171.53;;;-144.33;66.99
19843;BME280;10082;51.038;6.992;2023-05-24T10:11:25;112171.53;;;-144.33;63.81
19843;BME280;10082;51.038;6.992;2023-05-24T10:13:52;112171.53;;;-144.33;61.56
19843;BME280;10082;51.038;6.992;2023-05-24T10:16:20;112171.53;;;-144.33;55.22
19843;BME280;10082;51.038;6.992;2023-05-24T10:18:49;112171.53;;;-144.33;60.48
19843;BME280;10082;51.038;6.992;2023-05-24T10:21:18;112171.53;;;-144.33;65.77
19843;BME280;10082;51.038;6.992;2023-05-24T10:23:50;112171.53;;;-144.33;62.97
19843;BME280;10082;51.038;6.992;2023-05-24T10:26:22;112171.53;;;-144.33;60.18
19843;BME280;10082;51.038;6.992;2023-05-24T10:28:54;112171.53;;;-144.33;64.67
19843;BME280;10082;51.038;6.992;2023-05-24T10:31:26;112171.53;;;-144.33;69.57
19843;BME280;10082;51.038;6.992;2023-05-24T10:33:58;112171.53;;;-144.33;69.66
19843;BME280;10082;51.038;6.992;2023-05-24T10:36:26;112171.53;;;-144.33;66.45
19843;BME280;10082;51.038;6.992;2023-05-24T10:38:55;112171.53;;;-144.33;61.14
19843;BME280;10082;51.038;6.992;2023-05-24T10:41:24;112171.53;;;-144.33;58.36
19843;BME280;10082;51.038;6.992;2023-05-24T10:43:52;112171.53;;;-144.33;58.49
19843;BME280;10082;51.038;6.992;2023-05-24T10:46:20;112171.53;;;-144.33;62.00
19843;BME280;10082;51.038;6.992;2023-05-24T10:48:59;112171.53;;;-144.33;63.41
19843;BME280;10082;51.038;6.992;2023-05-24T10:51:32;112171.53;;;-144.33;65.44
19843;BME280;10082;51.038;6.992;2023-05-24T10:54:21;112171.53;;;-144.33;65.65
19843;BME280;10082;51.038;6.992;2023-05-24T10:56:51;112171.53;;;-144.33;63.24
19843;BME280;10082;51.038;6.992;2023-05-24T10:59:33;112171.53;;;-144.33;66.69
19843;BME280;10082;51.038;6.992;2023-05-24T11:02:05;112171.53;;;-144.33;69.27
19843;BME280;10082;51.038;6.992;2023-05-24T11:04:41;112171.53;;;-144.33;68.52
19843;BME280;10082;51.038;6.992;2023-05-24T11:07:18;112171.53;;;-144.33;66.30
19843;BME280;10082;51.038;6.992;2023-05-24T11:09:47;112171.53;;;-144.33;67.94
19843;BME280;10082;51.038;6.992;2023-05-24T11:12:20;112171.53;;;-144.33;66.18
19843;BME280;10082;51.038;6.992;2023-05-24T11:14:49;112171.53;;;-144.33;62.83
19843;BME280;10082;51.038;6.992;2023-05-24T11:17:20;112171.53;;;-144.33;64.72
19843;BME280;10082;51.038;6.992;2023-05-24T11:19:51;112171.53;;;-144.33;65.54
19843;BME280;10082;51.038;6.992;2023-05-24T11:22:19;112171.53;;;-144.33;64.89
19843;BME280;10082;51.038;6.992;2023-05-24T11:24:47;112171.53;;;-144.33;62.90
19843;BME280;10082;51.038;6.992;2023-05-24T11:27:14;112171.53;;;-144.33;60.98
19843;BME280;10082;51.038;6.992;2023-05-24T11:29:42;112171.53;;;-144.33;64.28
19843;BME280;10082;51.038;6.992;2023-05-24T11:32:14;112171.53;;;-144.33;64.92
19843;BME280;10082;51.038;6.992;2023-05-24T11:34:41;112171.53;;;-144.33;66.43
19843;BME280;10082;51.038;6.992;2023-05-24T11:37:12;112171.53;;;-144.33;67.17
19843;BME280;10082;51.038;6.992;2023-05-24T11:39:39;112171.53;;;-144.33;66.83
19843;BME280;10082;51.038;6.992;2023-05-24T11:42:07;112171.53;;;-144.33;70.27
19843;BME280;10082;51.038;6.992;2023-05-24T11:44:35;112171.53;;;-144.33;72.51
19843;BME280;10082;51.038;6.992;2023-05-24T11:47:06;112171.53;;;-144.33;72.90
19843;BME280;10082;51.038;6.992;2023-05-24T11:49:34;112171.53;;;-144.33;73.50
19843;BME280;10082;51.038;6.992;2023-05-24T11:52:01;112171.53;;;-144.33;72.83
19843;BME280;10082;51.038;6.992;2023-05-24T11:54:30;112171.53;;;-144.33;72.88
19843;BME280;10082;51.038;6.992;2023-05-24T11:56:59;112171.53;;;-144.33;71.66
19843;BME280;10082;51.038;6.992;2023-05-24T11:59:27;112171.53;;;-144.33;71.26
19843;BME280;10082;51.038;6.992;2023-05-24T12:01:59;112171.53;;;-144.33;71.56
19843;BME280;10082;51.038;6.992;2023-05-24T12:04:28;112171.53;;;-144.33;71.10
19843;BME280;10082;51.038;6.992;2023-05-24T12:06:56;112171.53;;;-144.33;70.82
19843;BME280;10082;51.038;6.992;2023-05-24T12:09:23;112171.53;;;-144.33;70.75
19843;BME280;10082;51.038;6.992;2023-05-24T12:11:52;112171.53;;;-144.33;68.71
19843;BME280;10082;51.038;6.992;2023-05-24T12:14:23;112171.53;;;-144.33;65.89
19843;BME280;10082;51.038;6.992;2023-05-24T12:16:53;112171.53;;;-144.33;64.42
19843;BME280;10082;51.038;6.992;2023-05-24T12:19:22;112171.53;;;-144.33;64.11
19843;BME280;10082;51.038;6.992;2023-05-24T12:21:54;112171.53;;;-144.33;63.08
19843;BME280;10082;51.038;6.992;2023-05-24T12:24:24;112171.53;;;-144.33;64.53
19843;BME280;10082;51.038;6.992;2023-05-24T12:26:58;112171.53;;;-144.33;63.53
19843;BME280;10082;51.038;6.992;2023-05-24T12:29:26;112171.53;;;-144.33;66.28
19843;BME280;10082;51.038;6.992;2023-05-24T12:31:53;112171.53;;;-144.33;63.58
19843;BME280;10082;51.038;6.992;2023-05-24T12:34:21;112171.53;;;-144.33;61.60
19843;BME280;10082;51.038;6.992;2023-05-24T12:36:48;112171.53;;;-144.33;56.41